Time;durP1;ratioP1;P1;durP2;ratioP2;P2;SDS_P1;SDS_P2;PMS_P1;PMS_P2;Temp;Humidity;BMP_temperature;BMP_pressure;BME280_temperature;BME280_humidity;BME280_pressure;Samples;Min_cycle;Max_cycle;Signal;HPM_P1;HPM_P2
2022/10/05 00:00:58;;;;;;;31.00;16.08;;;25.20;99.90;;;;;;5150681;27;20029;-63
2022/10/05 00:03:32;;;;;;;12.93;5.97;;;25.20;99.90;;;;;;5156206;27;20535;-64
2022/10/05 00:05:59;;;;;;;9.68;5.68;;;25.20;99.90;;;;;;5156108;27;20026;-64
2022/10/05 00:08:32;;;;;;;13.13;4.20;;;25.20;99.90;;;;;;5156303;27;20083;-64
2022/10/05 00:10:58;;;;;;;14.18;4.68;;;25.20;99.90;;;;;;5092496;22;20064;-64
2022/10/05 00:13:28;;;;;;;11.93;4.60;;;25.20;99.90;;;;;;5053489;28;20037;-63
2022/10/05 00:16:16;;;;;;;11.55;4.03;;;25.10;99.90;;;;;;5054115;28;20526;-65
2022/10/05 00:18:50;;;;;;;11.90;4.32;;;25.20;99.90;;;;;;5053882;28;20024;-65
2022/10/05 00:21:21;;;;;;;5.70;4.00;;;25.20;99.90;;;;;;5054075;28;20544;-65
2022/10/05 00:23:48;;;;;;;13.68;4.82;;;25.20;99.90;;;;;;5053925;28;20056;-65
2022/10/05 00:26:20;;;;;;;10.43;4.10;;;25.20;99.90;;;;;;5053876;28;20021;-66
2022/10/05 00:28:47;;;;;;;7.57;3.90;;;25.20;99.90;;;;;;5062494;28;20029;-65
2022/10/05 00:31:25;;;;;;;9.10;4.20;;;25.20;99.90;;;;;;5073861;28;20272;-64
2022/10/05 00:33:53;;;;;;;9.90;3.92;;;25.20;99.90;;;;;;5073679;28;20562;-65
2022/10/05 00:36:20;;;;;;;10.68;4.35;;;25.30;99.90;;;;;;5073431;28;20099;-65
2022/10/05 00:38:47;;;;;;;10.20;4.13;;;25.30;99.90;;;;;;5073656;28;20028;-65
2022/10/05 00:41:33;;;;;;;9.60;4.20;;;25.40;99.90;;;;;;5073789;28;20027;-64
2022/10/05 00:44:02;;;;;;;11.52;5.43;;;25.40;99.90;;;;;;5073543;28;20044;-64
2022/10/05 00:46:48;;;;;;;11.15;5.10;;;25.50;99.90;;;;;;5073601;28;20028;-64
2022/10/05 00:49:25;;;;;;;10.43;3.95;;;25.60;99.90;;;;;;5011696;28;20176;-64
2022/10/05 00:52:02;;;;;;;7.18;3.58;;;25.50;99.90;;;;;;5012023;28;20109;-63
2022/10/05 00:54:35;;;;;;;12.27;4.82;;;25.70;99.90;;;;;;5011750;28;20065;-63
2022/10/05 00:57:10;;;;;;;17.20;7.43;;;25.80;99.90;;;;;;5011801;28;20030;-62
2022/10/05 00:59:55;;;;;;;9.30;6.13;;;26.00;99.90;;;;;;5011398;28;20057;-62
2022/10/05 01:02:38;;;;;;;10.40;5.07;;;26.10;99.90;;;;;;5011586;28;20400;-62
2022/10/05 01:05:11;;;;;;;13.93;4.10;;;26.10;99.90;;;;;;5011758;28;20049;-62
2022/10/05 01:08:06;;;;;;;8.68;4.10;;;26.10;99.90;;;;;;5011727;28;20030;-63
2022/10/05 01:10:42;;;;;;;6.55;4.20;;;26.10;99.90;;;;;;5011798;28;20037;-63
2022/10/05 01:13:14;;;;;;;4.75;3.47;;;26.10;99.90;;;;;;5011440;28;20037;-63
2022/10/05 01:15:49;;;;;;;9.90;4.63;;;26.10;99.90;;;;;;5010937;28;20054;-63
2022/10/05 01:18:37;;;;;;;10.23;4.93;;;26.10;99.90;;;;;;5011063;28;20054;-63
2022/10/05 01:21:10;;;;;;;5.95;3.83;;;26.30;99.90;;;;;;5010978;28;20050;-63
2022/10/05 01:23:38;;;;;;;9.85;3.97;;;26.20;99.90;;;;;;5011570;28;20077;-63
2022/10/05 01:26:06;;;;;;;7.32;4.13;;;26.20;99.90;;;;;;5011388;28;20116;-63
2022/10/05 01:28:39;;;;;;;10.63;4.40;;;26.30;99.90;;;;;;5011323;28;20034;-63
2022/10/05 01:31:11;;;;;;;9.27;5.75;;;26.40;99.90;;;;;;5011384;28;20030;-63
2022/10/05 01:33:47;;;;;;;10.75;7.05;;;26.50;99.90;;;;;;5047653;28;20119;-63
2022/10/05 01:36:33;;;;;;;10.70;5.05;;;26.50;99.90;;;;;;5053805;28;20467;-63
2022/10/05 01:39:40;;;;;;;8.43;5.65;;;26.60;99.90;;;;;;5053312;28;20044;-62
2022/10/05 01:42:27;;;;;;;8.75;5.40;;;26.60;99.90;;;;;;5053227;28;20049;-62
2022/10/05 01:45:08;;;;;;;9.35;5.70;;;26.70;99.90;;;;;;5052921;28;20029;-63
2022/10/05 01:47:48;;;;;;;8.50;4.20;;;26.70;99.90;;;;;;5053197;28;20025;-65
2022/10/05 01:50:14;;;;;;;9.23;5.50;;;26.80;99.90;;;;;;5055943;28;20028;-65
2022/10/05 01:52:55;;;;;;;13.73;6.32;;;26.90;99.90;;;;;;5057185;28;20541;-63
2022/10/05 01:55:47;;;;;;;8.77;5.75;;;27.00;99.90;;;;;;5053249;28;20101;-63
2022/10/05 01:58:44;;;;;;;9.37;5.33;;;27.10;99.90;;;;;;4976003;28;20520;-62
2022/10/05 02:01:21;;;;;;;13.85;8.13;;;27.10;99.90;;;;;;4961664;28;20490;-62
2022/10/05 02:04:02;;;;;;;28.10;16.75;;;27.20;99.90;;;;;;4965080;28;20555;-62
2022/10/05 02:06:33;;;;;;;97.90;66.05;;;27.20;99.90;;;;;;4970357;28;20047;-63
2022/10/05 02:09:13;;;;;;;17.55;12.32;;;27.30;99.90;;;;;;4968597;28;20030;-63
2022/10/05 02:11:42;;;;;;;14.45;8.20;;;27.30;99.90;;;;;;4975883;28;20031;-63
2022/10/05 02:14:14;;;;;;;9.45;4.68;;;27.40;99.90;;;;;;4975744;28;20023;-63
2022/10/05 02:16:43;;;;;;;13.18;6.55;;;27.40;99.90;;;;;;4975805;28;20051;-63
2022/10/05 02:19:34;;;;;;;11.43;5.55;;;27.50;99.90;;;;;;4975724;28;20113;-63
2022/10/05 02:22:21;;;;;;;6.93;4.55;;;27.70;99.90;;;;;;4975503;28;20394;-63
2022/10/05 02:24:56;;;;;;;6.97;4.03;;;27.80;99.90;;;;;;4974954;28;20051;-63
2022/10/05 02:27:29;;;;;;;6.47;4.25;;;27.80;99.90;;;;;;4975093;28;20042;-63
2022/10/05 02:30:01;;;;;;;6.82;4.05;;;27.80;99.90;;;;;;5054313;28;20167;-63
2022/10/05 02:32:35;;;;;;;5.85;4.35;;;27.80;99.90;;;;;;5056565;28;20550;-64
2022/10/05 02:35:12;;;;;;;9.20;4.65;;;27.90;99.90;;;;;;5056623;28;20041;-64
2022/10/05 02:37:45;;;;;;;8.10;4.43;;;27.80;99.90;;;;;;5056479;28;20032;-65
2022/10/05 02:40:11;;;;;;;8.65;5.07;;;27.80;99.90;;;;;;5056097;28;20021;-66
2022/10/05 02:42:40;;;;;;;9.65;4.78;;;27.80;99.90;;;;;;5040100;28;20021;-64
2022/10/05 02:45:26;;;;;;;8.02;4.28;;;27.90;99.90;;;;;;5044832;28;20035;-65
2022/10/05 02:48:27;;;;;;;13.00;5.40;;;27.80;99.90;;;;;;5038846;28;20036;-65
2022/10/05 02:51:18;;;;;;;12.75;5.13;;;27.90;99.90;;;;;;5036033;28;20076;-65
2022/10/05 02:54:13;;;;;;;5.57;4.00;;;28.00;99.90;;;;;;5035928;28;20502;-65
2022/10/05 02:56:41;;;;;;;7.93;3.58;;;28.00;99.90;;;;;;5036281;28;20086;-64
2022/10/05 02:59:27;;;;;;;13.48;5.90;;;28.00;99.90;;;;;;5036109;28;20025;-64
2022/10/05 03:02:13;;;;;;;6.95;3.53;;;28.00;99.90;;;;;;5035679;28;20056;-65
2022/10/05 03:04:59;;;;;;;11.65;8.20;;;28.10;99.90;;;;;;5035826;28;20037;-66
2022/10/05 03:07:47;;;;;;;14.20;8.35;;;28.20;99.90;;;;;;5035554;28;20112;-65
2022/10/05 03:10:44;;;;;;;9.10;5.72;;;28.30;99.90;;;;;;5035878;28;20075;-65
2022/10/05 03:13:47;;;;;;;13.63;4.80;;;28.30;99.90;;;;;;4993808;28;20070;-67
2022/10/05 03:16:29;;;;;;;9.00;4.50;;;28.30;99.90;;;;;;4994479;28;20580;-65
2022/10/05 03:19:38;;;;;;;10.82;5.70;;;28.30;99.90;;;;;;4993960;28;20054;-65
2022/10/05 03:22:13;;;;;;;18.63;4.97;;;28.50;99.90;;;;;;4993773;28;20492;-66
2022/10/05 03:25:00;;;;;;;7.25;4.10;;;28.60;99.90;;;;;;4993737;28;20065;-68
2022/10/05 03:27:51;;;;;;;10.23;4.88;;;28.60;99.90;;;;;;4954478;29;20047;-66
2022/10/05 03:30:22;;;;;;;10.25;6.68;;;28.60;99.90;;;;;;4954991;29;20031;-66
2022/10/05 03:33:08;;;;;;;10.30;5.47;;;28.70;99.90;;;;;;4954870;29;20039;-67
2022/10/05 03:35:49;;;;;;;9.98;4.50;;;28.80;99.90;;;;;;4954819;28;20031;-66
2022/10/05 03:38:20;;;;;;;6.13;3.58;;;28.80;99.90;;;;;;4954793;29;20043;-66
2022/10/05 03:40:59;;;;;;;9.03;5.37;;;28.80;99.90;;;;;;4954746;29;20049;-67
2022/10/05 03:43:49;;;;;;;10.23;4.20;;;29.00;99.90;;;;;;4961208;28;20105;-66
2022/10/05 03:46:18;;;;;;;6.53;3.72;;;29.00;99.90;;;;;;4974054;28;20448;-66
2022/10/05 03:49:05;;;;;;;8.77;4.45;;;29.30;99.90;;;;;;4973876;28;20027;-66
2022/10/05 03:51:37;;;;;;;5.80;3.80;;;29.40;99.90;;;;;;4974017;28;20058;-66
2022/10/05 03:54:15;;;;;;;5.60;3.70;;;29.50;99.90;;;;;;4979567;28;20497;-66
2022/10/05 03:57:00;;;;;;;5.40;3.30;;;29.60;99.90;;;;;;4993476;28;20035;-66
2022/10/05 03:59:33;;;;;;;6.82;3.55;;;29.60;99.90;;;;;;4993196;28;20432;-65
2022/10/05 04:02:06;;;;;;;8.65;2.47;;;29.60;99.90;;;;;;4993142;28;20536;-66
2022/10/05 04:04:35;;;;;;;6.50;3.05;;;29.60;99.90;;;;;;5014878;28;20042;-66
2022/10/05 04:07:02;;;;;;;9.40;3.78;;;29.50;99.90;;;;;;5035256;28;20124;-66
2022/10/05 04:09:36;;;;;;;4.32;3.13;;;29.60;99.90;;;;;;5034785;28;20093;-66
2022/10/05 04:12:06;;;;;;;4.32;3.35;;;29.70;99.90;;;;;;5033693;28;20434;-66
2022/10/05 04:14:43;;;;;;;6.50;2.97;;;29.70;99.90;;;;;;5035415;28;20018;-65
2022/10/05 04:17:14;;;;;;;4.85;2.55;;;29.70;99.90;;;;;;5049660;28;20036;-66
2022/10/05 04:19:57;;;;;;;2.75;2.50;;;29.80;99.90;;;;;;5045718;28;20009;-66
2022/10/05 04:22:36;;;;;;;;;;;29.90;99.90;;;;;;5044049;28;20460;-66
2022/10/05 04:25:13;;;;;;;5.53;2.60;;;29.80;99.90;;;;;;5044314;28;19905;-66
2022/10/05 04:27:50;;;;;;;4.15;3.00;;;29.90;99.90;;;;;;5054323;28;20487;-66
2022/10/05 04:30:19;;;;;;;4.50;2.30;;;30.10;99.90;;;;;;5062337;28;20025;-64
2022/10/05 04:32:54;;;;;;;5.15;3.33;;;30.20;99.90;;;;;;5063592;28;20036;-65
2022/10/05 04:35:50;;;;;;;5.28;2.80;;;30.30;99.90;;;;;;5069177;28;20020;-65
2022/10/05 04:38:21;;;;;;;4.70;2.33;;;30.30;99.90;;;;;;4970774;28;20031;-66
2022/10/05 04:41:07;;;;;;;5.97;3.03;;;30.40;99.90;;;;;;4971982;28;20039;-65
2022/10/05 04:43:54;;;;;;;5.65;2.92;;;30.70;99.90;;;;;;4972489;28;20054;-65
2022/10/05 04:46:30;;;;;;;7.35;2.67;;;30.60;99.90;;;;;;4972146;28;20043;-67
2022/10/05 04:49:18;;;;;;;4.03;2.40;;;30.50;99.90;;;;;;4971062;28;20039;-65
2022/10/05 04:52:13;;;;;;;4.32;3.00;;;30.60;99.90;;;;;;4934040;29;20118;-67
2022/10/05 04:54:49;;;;;;;7.32;3.00;;;30.50;99.90;;;;;;4934647;29;20024;-68
2022/10/05 04:57:26;;;;;;;3.25;2.40;;;30.50;99.90;;;;;;4933780;29;20171;-69
2022/10/05 04:59:54;;;;;;;4.57;2.60;;;30.50;99.90;;;;;;4932865;29;20020;-66
2022/10/05 05:02:40;;;;;;;4.18;3.03;;;30.50;99.90;;;;;;4933195;29;20438;-67
2022/10/05 05:05:19;;;;;;;4.30;2.88;;;30.60;99.90;;;;;;4930877;29;20044;-69
2022/10/05 05:08:07;;;;;;;5.15;2.90;;;30.70;99.90;;;;;;4926452;29;20157;-67
2022/10/05 05:10:50;;;;;;;7.40;3.67;;;30.70;99.90;;;;;;4930089;29;20147;-67
2022/10/05 05:13:25;;;;;;;4.18;2.70;;;30.80;99.90;;;;;;4928153;29;20031;-67
2022/10/05 05:16:21;;;;;;;5.70;2.92;;;30.80;99.90;;;;;;4931421;29;20545;-67
2022/10/05 05:19:15;;;;;;;6.30;2.97;;;30.90;99.90;;;;;;4929582;29;20027;-68
2022/10/05 05:22:08;;;;;;;6.47;2.42;;;31.00;99.90;;;;;;4929828;29;20058;-67
2022/10/05 05:24:43;;;;;;;5.45;2.85;;;31.10;99.90;;;;;;4929386;29;20155;-66
2022/10/05 05:27:31;;;;;;;6.72;3.03;;;31.10;99.90;;;;;;4931737;29;20044;-68
2022/10/05 05:29:59;;;;;;;3.55;2.55;;;31.20;99.90;;;;;;4968364;28;20476;-67
2022/10/05 05:32:33;;;;;;;8.35;5.60;;;31.20;99.90;;;;;;4970753;28;20102;-66
2022/10/05 05:35:01;;;;;;;5.07;3.65;;;31.20;99.90;;;;;;5028494;28;20036;-66
2022/10/05 05:37:33;;;;;;;17.08;13.32;;;31.20;99.90;;;;;;5062242;28;20466;-66
2022/10/05 05:40:01;;;;;;;8.68;3.60;;;31.10;99.90;;;;;;5063277;28;20074;-65
2022/10/05 05:42:27;;;;;;;9.70;4.63;;;31.10;99.90;;;;;;5062189;28;20036;-66
2022/10/05 05:44:59;;;;;;;8.93;4.90;;;31.00;99.90;;;;;;5061595;28;20020;-66
2022/10/05 05:47:34;;;;;;;9.43;4.28;;;31.00;99.90;;;;;;5061828;28;20032;-66
2022/10/05 05:50:09;;;;;;;6.82;4.32;;;31.20;99.90;;;;;;5060945;28;20056;-66
2022/10/05 05:52:53;;;;;;;7.57;3.67;;;31.30;99.90;;;;;;5060785;28;20028;-66
2022/10/05 05:55:23;;;;;;;12.75;4.13;;;31.40;99.90;;;;;;5061027;28;20163;-66
2022/10/05 05:57:57;;;;;;;6.18;3.58;;;31.40;99.90;;;;;;5061946;28;20091;-66
2022/10/05 06:00:41;;;;;;;5.40;3.45;;;31.40;99.90;;;;;;5065523;28;20025;-66
2022/10/05 06:03:21;;;;;;;8.48;3.38;;;31.50;99.90;;;;;;5065403;28;20036;-66
2022/10/05 06:05:53;;;;;;;7.93;5.78;;;31.60;99.90;;;;;;5065995;28;20391;-66
2022/10/05 06:08:24;;;;;;;;;;;31.60;99.90;;;;;;5067289;28;20033;-66
2022/10/05 06:11:15;;;;;;;132.80;91.35;;;31.70;99.90;;;;;;5065601;28;19950;-64
2022/10/05 06:13:43;;;;;;;7.68;4.45;;;31.70;99.90;;;;;;4970882;28;20089;-66
2022/10/05 06:16:13;;;;;;;6.07;4.82;;;31.80;99.90;;;;;;4966712;28;20035;-66
2022/10/05 06:18:44;;;;;;;3.35;3.03;;;31.90;99.90;;;;;;4970304;28;20039;-65
2022/10/05 06:21:36;;;;;;;5.07;3.60;;;32.00;99.90;;;;;;4968466;28;20033;-66
2022/10/05 06:24:42;;;;;;;3.80;2.75;;;32.00;99.90;;;;;;4970361;28;20494;-67
2022/10/05 06:27:24;;;;;;;7.53;4.18;;;31.90;99.90;;;;;;4966156;28;20049;-66
2022/10/05 06:30:00;;;;;;;11.27;3.10;;;32.00;99.90;;;;;;4969061;28;20053;-65
2022/10/05 06:32:29;;;;;;;11.52;3.83;;;32.00;99.90;;;;;;4968432;28;20019;-66
2022/10/05 06:35:09;;;;;;;6.50;3.50;;;32.00;99.90;;;;;;4968008;28;20035;-65
2022/10/05 06:37:46;;;;;;;8.82;3.70;;;31.90;99.90;;;;;;4971609;28;20531;-67
2022/10/05 06:40:21;;;;;;;9.27;3.63;;;32.00;99.90;;;;;;4973466;28;20034;-66
2022/10/05 06:42:59;;;;;;;7.78;3.55;;;32.20;99.90;;;;;;4970539;28;20037;-64
2022/10/05 06:45:39;;;;;;;6.20;3.60;;;32.10;99.90;;;;;;5044879;28;20041;-64
2022/10/05 06:48:28;;;;;;;7.45;4.32;;;32.00;99.90;;;;;;5042252;28;20116;-64
2022/10/05 06:51:23;;;;;;;10.85;4.70;;;32.00;99.90;;;;;;5042905;28;20041;-64
2022/10/05 06:53:52;;;;;;;13.35;5.22;;;32.00;99.90;;;;;;5040285;28;20028;-64
2022/10/05 06:56:29;;;;;;;8.02;4.28;;;31.90;99.90;;;;;;5041004;28;20028;-63
2022/10/05 06:59:24;;;;;;;27.92;19.55;;;31.80;99.90;;;;;;5043840;28;20032;-64
2022/10/05 07:02:09;;;;;;;10.93;5.40;;;31.90;99.90;;;;;;4992054;28;20543;-65
2022/10/05 07:05:04;;;;;;;10.93;5.93;;;31.80;99.90;;;;;;4992566;28;20048;-64
2022/10/05 07:07:32;;;;;;;11.73;6.28;;;31.80;99.90;;;;;;4934149;29;20031;-66
2022/10/05 07:10:16;;;;;;;15.45;7.15;;;31.80;99.90;;;;;;4934498;29;20491;-66
2022/10/05 07:12:58;;;;;;;10.52;7.70;;;32.00;99.90;;;;;;4931818;29;20115;-66
2022/10/05 07:15:52;;;;;;;11.35;6.18;;;32.00;99.90;;;;;;4935000;29;20115;-66
2022/10/05 07:18:39;;;;;;;11.18;6.38;;;32.00;99.90;;;;;;4935073;29;20446;-66
2022/10/05 07:21:26;;;;;;;11.02;6.13;;;32.10;99.90;;;;;;4935771;29;20073;-66
2022/10/05 07:24:01;;;;;;;12.68;6.07;;;32.00;99.90;;;;;;4934945;29;20032;-66
2022/10/05 07:26:56;;;;;;;13.15;6.05;;;32.00;99.90;;;;;;4935952;29;20051;-66
2022/10/05 07:29:51;;;;;;;17.35;5.95;;;32.00;99.90;;;;;;4934796;29;20052;-65
2022/10/05 07:32:34;;;;;;;25.60;12.65;;;32.10;99.90;;;;;;4934639;29;20036;-66
2022/10/05 07:35:08;;;;;;;24.30;7.20;;;32.20;99.90;;;;;;4935649;29;20140;-67
2022/10/05 07:37:57;;;;;;;16.33;6.03;;;32.20;99.90;;;;;;4934741;29;20122;-68
2022/10/05 07:40:27;;;;;;;18.13;6.65;;;32.40;99.90;;;;;;4952765;29;20102;-71
2022/10/05 07:43:14;;;;;;;12.05;4.82;;;32.50;99.90;;;;;;4954113;29;20497;-71
2022/10/05 07:45:50;;;;;;;11.85;5.93;;;32.50;99.90;;;;;;5041644;28;20047;-73
2022/10/05 07:48:21;;;;;;;22.70;6.90;;;32.40;99.90;;;;;;5048197;28;20041;-64
2022/10/05 07:51:05;;;;;;;19.33;5.70;;;32.30;99.90;;;;;;5042632;28;20013;-64
2022/10/05 07:53:39;;;;;;;39.35;6.47;;;32.50;99.90;;;;;;5038769;28;20468;-65
2022/10/05 07:56:20;;;;;;;10.38;5.03;;;32.50;99.90;;;;;;5040344;28;20576;-65
2022/10/05 07:58:57;;;;;;;16.23;6.38;;;32.40;99.90;;;;;;5040445;28;20130;-66
2022/10/05 08:01:28;;;;;;;14.80;7.43;;;32.30;99.90;;;;;;5038158;28;20025;-65
2022/10/05 08:03:55;;;;;;;14.20;7.33;;;32.20;99.90;;;;;;5039974;28;20037;-65
2022/10/05 08:06:31;;;;;;;13.50;8.13;;;32.10;99.90;;;;;;5043435;28;20262;-65
2022/10/05 08:09:13;;;;;;;20.45;9.50;;;32.10;99.90;;;;;;5034801;28;20057;-66
2022/10/05 08:11:53;;;;;;;21.17;10.52;;;32.10;99.90;;;;;;5034441;28;20021;-66
2022/10/05 08:14:46;;;;;;;17.50;10.82;;;32.10;99.90;;;;;;5034160;28;20105;-66
2022/10/05 08:17:39;;;;;;;15.23;9.80;;;32.10;99.90;;;;;;4954013;29;20027;-67
2022/10/05 08:20:05;;;;;;;;;;;32.20;99.90;;;;;;4916229;29;20040;-67
2022/10/05 08:22:40;;;;;;;17.33;11.57;;;32.30;99.90;;;;;;4915831;29;20339;-65
2022/10/05 08:25:34;;;;;;;14.98;9.63;;;32.40;99.90;;;;;;4915679;29;20039;-66
2022/10/05 08:28:23;;;;;;;16.58;10.88;;;32.50;99.90;;;;;;4915101;29;20051;-66
2022/10/05 08:30:55;;;;;;;15.55;10.25;;;32.60;99.90;;;;;;4915695;29;20072;-66
2022/10/05 08:33:22;;;;;;;18.00;10.95;;;32.70;99.90;;;;;;4919574;29;20028;-66
2022/10/05 08:36:01;;;;;;;60.92;45.55;;;32.70;99.90;;;;;;4920390;29;20124;-70
2022/10/05 08:38:32;;;;;;;79.20;58.13;;;32.80;99.90;;;;;;4917794;29;20070;-70
2022/10/05 08:41:01;;;;;;;39.42;32.97;;;32.80;99.90;;;;;;4926456;29;20127;-67
2022/10/05 08:43:56;;;;;;;40.00;27.52;;;32.70;99.90;;;;;;4929032;29;20072;-69
2022/10/05 08:46:55;;;;;;;28.65;21.63;;;32.70;99.90;;;;;;4929081;29;20040;-68
2022/10/05 08:49:30;;;;;;;28.35;20.70;;;32.70;99.90;;;;;;5011199;28;20053;-70
2022/10/05 08:52:07;;;;;;;24.63;17.98;;;32.70;99.90;;;;;;5030101;28;20068;-70
2022/10/05 08:54:45;;;;;;;32.45;19.38;;;32.70;99.90;;;;;;5031437;28;20028;-68
2022/10/05 08:57:50;;;;;;;24.77;16.38;;;32.70;99.90;;;;;;5011686;28;20045;-69
2022/10/05 09:00:19;;;;;;;15.70;10.25;;;32.70;99.90;;;;;;4953259;29;20299;-67
2022/10/05 09:02:48;;;;;;;14.98;10.90;;;32.70;99.90;;;;;;4952481;29;20390;-66
2022/10/05 09:05:17;;;;;;;31.40;22.30;;;32.50;99.90;;;;;;4951504;29;20043;-67
2022/10/05 09:08:12;;;;;;;23.48;14.98;;;32.50;99.90;;;;;;4946932;29;20077;-65
2022/10/05 09:10:47;;;;;;;29.15;16.83;;;32.50;99.90;;;;;;4951041;28;20042;-65
2022/10/05 09:13:42;;;;;;;23.98;14.90;;;32.60;99.90;;;;;;4949268;28;21652;-65
2022/10/05 09:16:38;;;;;;;11.80;7.72;;;32.60;99.90;;;;;;4893576;29;20193;-65
2022/10/05 09:19:42;;;;;;;15.98;9.38;;;32.70;99.90;;;;;;4893662;29;20071;-66
2022/10/05 09:22:37;;;;;;;13.70;8.63;;;32.60;99.90;;;;;;4894254;29;20087;-66
2022/10/05 09:25:29;;;;;;;20.52;12.75;;;32.70;99.90;;;;;;4891998;29;20048;-66
2022/10/05 09:28:02;;;;;;;25.65;15.02;;;32.70;99.90;;;;;;4894881;29;20053;-66
2022/10/05 09:30:52;;;;;;;31.85;12.25;;;32.70;99.90;;;;;;4893783;29;20072;-65
2022/10/05 09:33:37;;;;;;;21.90;11.05;;;32.70;99.90;;;;;;4895014;29;20118;-66
2022/10/05 09:36:21;;;;;;;18.55;8.40;;;32.60;99.90;;;;;;4901842;28;20033;-67
2022/10/05 09:39:27;;;;;;;89.07;52.85;;;32.50;99.90;;;;;;4980884;28;20508;-67
2022/10/05 09:42:14;;;;;;;85.93;51.45;;;32.50;99.90;;;;;;4983042;28;20149;-67
2022/10/05 09:45:11;;;;;;;549.08;382.95;;;32.50;99.90;;;;;;4983098;28;20034;-65
2022/10/05 09:48:06;;;;;;;580.20;464.95;;;32.50;99.90;;;;;;4982014;28;20069;-66
2022/10/05 09:50:43;;;;;;;477.75;379.63;;;32.60;99.90;;;;;;4928529;29;20120;-68
2022/10/05 09:53:49;;;;;;;77.38;53.35;;;32.60;99.90;;;;;;4919235;29;20083;-66
2022/10/05 09:56:33;;;;;;;111.63;75.85;;;32.50;99.90;;;;;;4923788;29;20044;-66
2022/10/05 09:59:02;;;;;;;31.08;21.52;;;32.50;99.90;;;;;;4944945;28;20058;-69
2022/10/05 10:01:50;;;;;;;38.05;21.33;;;32.60;99.90;;;;;;4978973;28;20101;-69
2022/10/05 10:04:29;;;;;;;31.73;17.98;;;32.60;99.90;;;;;;4980159;28;20540;-69
2022/10/05 10:07:20;;;;;;;57.08;35.40;;;32.60;99.60;;;;;;4978858;28;20113;-71
2022/10/05 10:09:57;;;;;;;39.80;25.37;;;32.50;99.90;;;;;;4980270;28;20066;-70
2022/10/05 10:12:49;;;;;;;81.40;45.72;;;32.30;99.90;;;;;;4984690;28;20029;-69
2022/10/05 10:15:16;;;;;;;;;;;32.20;99.90;;;;;;4987933;28;20044;-69
2022/10/05 10:18:11;;;;;;;270.85;161.70;;;32.20;99.90;;;;;;4984058;28;20336;-67
2022/10/05 10:20:39;;;;;;;152.23;62.97;;;31.90;99.90;;;;;;4984731;28;20033;-65
2022/10/05 10:23:28;;;;;;;79.13;33.10;;;31.40;99.90;;;;;;4983273;28;20037;-64
2022/10/05 10:26:04;;;;;;;67.20;23.05;;;31.00;99.90;;;;;;4984464;28;20026;-65
2022/10/05 10:28:51;;;;;;;64.13;22.73;;;30.40;99.90;;;;;;5049135;28;20059;-66
2022/10/05 10:31:35;;;;;;;42.22;16.35;;;30.10;99.90;;;;;;5063793;28;20021;-66
2022/10/05 10:34:05;;;;;;;42.55;16.08;;;29.90;99.90;;;;;;5064303;28;20021;-66
2022/10/05 10:37:11;;;;;;;25.75;11.93;;;29.50;99.90;;;;;;5063867;28;20024;-66
2022/10/05 10:39:46;;;;;;;16.02;10.32;;;29.20;99.90;;;;;;5065601;28;20032;-66
2022/10/05 10:42:24;;;;;;;23.70;11.80;;;29.30;99.90;;;;;;5065518;28;20484;-66
2022/10/05 10:45:01;;;;;;;27.70;14.60;;;29.40;99.90;;;;;;5064986;28;20036;-65
2022/10/05 10:47:39;;;;;;;30.05;16.55;;;29.50;99.90;;;;;;5064283;28;20438;-66
2022/10/05 10:50:07;;;;;;;23.92;14.18;;;29.30;99.90;;;;;;5064311;28;20465;-66
2022/10/05 10:52:53;;;;;;;25.27;14.57;;;29.20;99.90;;;;;;5063272;28;20025;-65
2022/10/05 10:55:49;;;;;;;20.60;15.30;;;29.20;99.90;;;;;;4990169;28;20481;-66
2022/10/05 10:58:50;;;;;;;14.00;10.85;;;29.20;99.90;;;;;;4932444;29;20050;-66
2022/10/05 11:01:34;;;;;;;19.73;11.82;;;29.00;99.90;;;;;;4924292;29;20407;-66
2022/10/05 11:04:04;;;;;;;26.17;13.98;;;28.90;99.90;;;;;;4917111;29;20039;-66
2022/10/05 11:06:35;;;;;;;18.30;12.65;;;28.90;99.90;;;;;;4917256;29;20120;-66
2022/10/05 11:09:12;;;;;;;17.63;13.60;;;28.90;99.90;;;;;;4916874;29;20040;-66
2022/10/05 11:11:41;;;;;;;18.17;15.52;;;28.80;99.90;;;;;;4916524;29;20430;-65
2022/10/05 11:14:27;;;;;;;59.10;49.55;;;28.60;99.90;;;;;;4916774;29;20028;-66
2022/10/05 11:16:55;;;;;;;42.22;36.25;;;28.60;99.90;;;;;;4878837;29;20556;-66
2022/10/05 11:19:41;;;;;;;13.07;11.43;;;28.50;99.90;;;;;;4879166;29;20041;-66
2022/10/05 11:22:48;;;;;;;15.27;10.02;;;28.40;99.90;;;;;;4878945;29;20041;-65
2022/10/05 11:25:46;;;;;;;40.55;34.00;;;28.40;99.90;;;;;;4886998;29;20168;-66
2022/10/05 11:28:34;;;;;;;8.90;7.97;;;28.40;99.90;;;;;;4916520;29;20051;-65
2022/10/05 11:31:09;;;;;;;7.43;6.70;;;28.40;99.90;;;;;;4916224;29;20052;-66
2022/10/05 11:33:41;;;;;;;6.07;5.47;;;28.40;99.90;;;;;;4916705;29;20063;-66
2022/10/05 11:36:10;;;;;;;21.65;15.32;;;28.40;99.90;;;;;;4953465;28;20061;-69
2022/10/05 11:39:16;;;;;;;8.73;5.80;;;28.40;99.90;;;;;;4973716;28;20154;-69
2022/10/05 11:41:58;;;;;;;18.63;11.05;;;28.40;99.90;;;;;;4968990;28;20086;-65
2022/10/05 11:44:44;;;;;;;7.40;4.93;;;28.40;99.90;;;;;;4966356;28;20035;-70
2022/10/05 11:47:16;;;;;;;18.95;12.02;;;28.40;99.90;;;;;;4968654;28;20512;-70
2022/10/05 11:50:08;;;;;;;15.60;12.40;;;28.40;99.90;;;;;;4971123;28;20034;-69
2022/10/05 11:52:43;;;;;;;11.83;8.40;;;28.40;99.90;;;;;;4970870;28;20023;-71
2022/10/05 11:55:13;;;;;;;77.20;57.45;;;28.30;99.90;;;;;;5066187;28;20075;-67
2022/10/05 11:57:50;;;;;;;22.05;10.57;;;28.20;99.90;;;;;;5068724;28;20073;-68
2022/10/05 12:00:20;;;;;;;7.85;5.45;;;28.20;99.90;;;;;;5068025;28;20505;-69
2022/10/05 12:02:55;;;;;;;9.40;6.95;;;28.10;99.90;;;;;;5063974;28;20024;-70
2022/10/05 12:05:39;;;;;;;10.32;6.90;;;28.20;99.90;;;;;;5062383;28;20066;-67
2022/10/05 12:08:22;;;;;;;10.95;8.23;;;28.20;99.90;;;;;;5063506;28;20120;-66
2022/10/05 12:10:59;;;;;;;13.88;8.68;;;28.30;99.90;;;;;;5061529;28;20016;-66
2022/10/05 12:13:37;;;;;;;12.18;8.93;;;28.40;99.90;;;;;;5061015;28;20028;-66
2022/10/05 12:16:23;;;;;;;10.38;6.57;;;28.30;99.90;;;;;;5062022;28;20028;-67
2022/10/05 12:18:51;;;;;;;14.00;7.25;;;28.30;99.90;;;;;;4971195;28;20034;-68
2022/10/05 12:21:17;;;;;;;12.05;8.85;;;28.30;99.90;;;;;;4969892;28;20592;-67
2022/10/05 12:24:19;;;;;;;10.32;8.48;;;28.40;99.90;;;;;;4971907;28;20162;-68
2022/10/05 12:26:50;;;;;;;12.90;8.90;;;28.40;99.90;;;;;;4963324;28;20046;-68
2022/10/05 12:29:25;;;;;;;12.90;8.32;;;28.40;99.90;;;;;;4961838;28;20514;-68
2022/10/05 12:32:16;;;;;;;10.77;6.95;;;28.30;99.90;;;;;;4960998;28;20043;-68
2022/10/05 12:34:43;;;;;;;12.98;7.18;;;28.20;99.90;;;;;;4959958;28;20034;-68
2022/10/05 12:37:30;;;;;;;8.85;6.60;;;28.20;99.90;;;;;;4963125;28;20063;-68
2022/10/05 12:40:21;;;;;;;8.38;5.93;;;28.20;99.90;;;;;;4960889;28;20038;-69
2022/10/05 12:42:59;;;;;;;11.25;6.35;;;28.20;99.90;;;;;;4950797;29;20039;-68
2022/10/05 12:46:05;;;;;;;9.50;6.05;;;28.30;99.90;;;;;;4951928;29;20118;-69
2022/10/05 12:48:51;;;;;;;8.50;6.10;;;28.30;99.90;;;;;;4934469;29;20039;-66
2022/10/05 12:51:46;;;;;;;14.02;7.20;;;28.30;99.90;;;;;;4944390;29;20042;-67
2022/10/05 12:54:34;;;;;;;10.90;6.95;;;28.30;99.90;;;;;;4950677;29;20026;-66
2022/10/05 12:57:21;;;;;;;14.10;7.55;;;28.30;99.90;;;;;;4923565;29;20032;-66
2022/10/05 13:00:00;;;;;;;14.27;8.52;;;28.20;99.90;;;;;;4926366;29;20530;-66
2022/10/05 13:02:49;;;;;;;15.05;8.68;;;28.20;99.90;;;;;;4925044;29;20036;-66
2022/10/05 13:05:31;;;;;;;13.23;9.35;;;28.20;99.90;;;;;;4875678;29;20123;-67
2022/10/05 13:08:11;;;;;;;10.25;7.53;;;28.20;99.90;;;;;;4875258;29;20428;-67
2022/10/05 13:10:46;;;;;;;14.90;8.00;;;28.10;99.90;;;;;;4876576;29;20086;-67
2022/10/05 13:13:22;;;;;;;16.15;9.07;;;28.20;99.90;;;;;;4875687;29;20492;-67
2022/10/05 13:15:50;;;;;;;18.48;9.45;;;28.20;99.90;;;;;;4889657;29;20508;-66
2022/10/05 13:18:24;;;;;;;19.33;11.27;;;28.30;99.90;;;;;;4895050;29;20582;-67
2022/10/05 13:21:12;;;;;;;15.00;8.80;;;28.30;99.90;;;;;;4895074;29;20060;-67
2022/10/05 13:23:44;;;;;;;14.82;9.10;;;28.20;99.90;;;;;;4895092;29;20037;-67
2022/10/05 13:26:21;;;;;;;11.82;8.52;;;28.30;99.90;;;;;;4894995;29;20040;-67
2022/10/05 13:28:52;;;;;;;12.25;9.30;;;28.20;99.90;;;;;;4894860;29;20079;-67
2022/10/05 13:31:42;;;;;;;12.18;8.05;;;28.20;99.90;;;;;;4894804;29;20033;-66
2022/10/05 13:34:18;;;;;;;10.98;7.40;;;28.20;99.90;;;;;;4894556;29;20032;-67
2022/10/05 13:36:56;;;;;;;13.10;8.65;;;28.20;99.90;;;;;;4894949;29;20509;-67
2022/10/05 13:39:40;;;;;;;10.20;7.00;;;28.10;99.90;;;;;;4894856;29;20048;-67
2022/10/05 13:42:35;;;;;;;11.35;6.72;;;28.00;99.90;;;;;;4894762;29;20041;-69
2022/10/05 13:45:23;;;;;;;9.55;6.40;;;28.00;99.90;;;;;;4829174;29;20469;-70